createdAt,value
2023-05-12T00:00:32.786Z,46.89
2023-05-12T00:01:32.705Z,45.28
2023-05-12T00:02:32.810Z,45.92
2023-05-12T00:03:32.830Z,49.31
2023-05-12T00:04:32.727Z,46.73
2023-05-12T00:05:32.739Z,46.41
2023-05-12T00:06:32.764Z,46.57
2023-05-12T00:07:32.654Z,50.92
2023-05-12T00:08:32.654Z,61.23
2023-05-12T00:09:32.620Z,56.40
2023-05-12T00:10:32.645Z,50.11
2023-05-12T00:11:32.652Z,47.53
2023-05-12T00:12:32.621Z,54.46
2023-05-12T00:13:32.678Z,48.18
2023-05-12T00:14:32.591Z,47.86
2023-05-12T00:15:32.580Z,56.07
2023-05-12T00:16:32.668Z,49.95
2023-05-12T00:17:32.600Z,48.50
2023-05-12T00:18:32.587Z,46.41
2023-05-12T00:19:32.591Z,46.41
2023-05-12T00:20:32.550Z,48.82
2023-05-12T00:21:32.569Z,50.60
2023-05-12T00:22:32.493Z,55.27
2023-05-12T00:23:32.483Z,46.89
2023-05-12T00:24:32.508Z,48.34
2023-05-12T00:25:32.470Z,46.41
2023-05-12T00:26:32.577Z,46.89
2023-05-12T00:27:32.472Z,49.95
2023-05-12T00:28:32.430Z,46.57
2023-05-12T00:29:32.486Z,46.57
2023-05-12T00:30:32.429Z,48.82
2023-05-12T00:31:32.419Z,50.43
2023-05-12T00:32:32.494Z,46.89
2023-05-12T00:33:32.408Z,48.02
2023-05-12T00:34:32.631Z,45.76
2023-05-12T00:35:32.366Z,45.60
2023-05-12T00:36:32.445Z,46.08
2023-05-12T00:37:32.344Z,47.05
2023-05-12T00:38:32.366Z,51.08
2023-05-12T00:39:32.399Z,50.11
2023-05-12T00:40:32.553Z,62.52
2023-05-12T00:41:32.304Z,52.05
2023-05-12T00:42:32.343Z,46.89
2023-05-12T00:43:32.307Z,45.60
2023-05-12T00:44:32.558Z,46.41
2023-05-12T00:45:32.314Z,49.79
2023-05-12T00:46:32.332Z,47.21
2023-05-12T00:47:32.372Z,48.66
2023-05-12T00:48:32.339Z,57.04
2023-05-12T00:49:32.223Z,46.89
2023-05-12T00:50:32.232Z,56.40
2023-05-12T00:51:32.242Z,48.66
2023-05-12T00:52:32.232Z,46.89
2023-05-12T00:53:44.919Z,48.34
2023-05-12T00:54:32.225Z,48.34
2023-05-12T00:55:32.168Z,47.70
2023-05-12T00:56:32.168Z,47.86
2023-05-12T00:57:32.150Z,47.70
2023-05-12T00:58:32.148Z,69.45
2023-05-12T00:59:32.192Z,48.18
2023-05-12T01:00:32.155Z,48.18
2023-05-12T01:01:32.126Z,52.21
2023-05-12T01:02:32.195Z,47.21
2023-05-12T01:03:32.133Z,53.50
2023-05-12T01:04:32.092Z,48.50
2023-05-12T01:05:32.138Z,48.34
2023-05-12T01:06:32.061Z,48.18
2023-05-12T01:07:32.026Z,47.05
2023-05-12T01:08:32.035Z,48.66
2023-05-12T01:09:32.067Z,48.98
2023-05-12T01:10:32.070Z,48.50
2023-05-12T01:11:32.083Z,47.70
2023-05-12T01:12:31.983Z,48.82
2023-05-12T01:13:31.999Z,52.53
2023-05-12T01:14:32.542Z,48.18
2023-05-12T01:15:31.982Z,49.31
2023-05-12T01:16:31.968Z,47.53
2023-05-12T01:17:32.122Z,48.18
2023-05-12T01:18:32.000Z,49.47
2023-05-12T01:19:31.936Z,48.50
2023-05-12T01:20:32.222Z,48.18
2023-05-12T01:21:31.954Z,48.82
2023-05-12T01:22:31.913Z,48.82
2023-05-12T01:23:31.906Z,48.50
2023-05-12T01:24:32.154Z,70.09
2023-05-12T01:25:31.932Z,49.79
2023-05-12T01:26:31.862Z,48.18
2023-05-12T01:27:31.863Z,54.62
2023-05-12T01:28:31.890Z,49.95
2023-05-12T01:29:31.852Z,48.50
2023-05-12T01:30:31.991Z,48.50
2023-05-12T01:31:31.863Z,48.50
2023-05-12T01:32:31.817Z,52.69
2023-05-12T01:33:31.782Z,56.24
2023-05-12T01:34:31.784Z,48.82
2023-05-12T01:35:31.753Z,48.98
2023-05-12T01:36:31.804Z,46.57
2023-05-12T01:37:31.762Z,46.41
2023-05-12T01:38:31.809Z,49.15
2023-05-12T01:39:31.748Z,47.37
2023-05-12T01:40:31.744Z,51.40
2023-05-12T01:41:32.557Z,47.53
2023-05-12T01:42:31.701Z,50.60
2023-05-12T01:43:31.659Z,47.53
2023-05-12T01:44:31.681Z,46.73
2023-05-12T01:45:31.667Z,46.57
2023-05-12T01:46:31.737Z,46.57
2023-05-12T01:47:31.678Z,68.16
2023-05-12T01:48:31.635Z,47.05
2023-05-12T01:49:31.792Z,49.31
2023-05-12T01:50:31.608Z,57.36
2023-05-12T01:51:31.624Z,51.88
2023-05-12T01:52:31.583Z,48.18
2023-05-12T01:53:31.574Z,62.52
2023-05-12T01:54:31.623Z,47.70
2023-05-12T01:55:32.460Z,46.73
2023-05-12T01:56:31.567Z,45.60
2023-05-12T01:57:31.547Z,45.92
2023-05-12T01:58:31.546Z,52.21
2023-05-12T01:59:31.511Z,55.91
2023-05-12T02:00:31.513Z,45.44
2023-05-12T02:01:31.530Z,45.28
2023-05-12T02:02:31.639Z,47.21
2023-05-12T02:03:31.561Z,59.94
2023-05-12T02:04:31.492Z,50.60
2023-05-12T02:05:31.465Z,46.08
2023-05-12T02:06:31.443Z,53.01
2023-05-12T02:07:31.432Z,63.00
2023-05-12T02:08:31.467Z,48.98
2023-05-12T02:09:31.412Z,64.13
2023-05-12T02:10:31.481Z,54.95
2023-05-12T02:11:31.392Z,43.99
2023-05-12T02:12:31.391Z,48.50
2023-05-12T02:13:31.402Z,43.51
2023-05-12T02:14:31.376Z,49.63
2023-05-12T02:15:31.369Z,54.95
2023-05-12T02:16:31.414Z,42.70
2023-05-12T02:17:31.378Z,43.83
2023-05-12T02:18:31.425Z,47.70
2023-05-12T02:19:31.313Z,51.56
2023-05-12T02:20:31.297Z,48.82
2023-05-12T02:21:31.334Z,43.34
2023-05-12T02:22:31.303Z,43.18
2023-05-12T02:23:31.271Z,53.66
2023-05-12T02:24:31.341Z,52.37
2023-05-12T02:25:31.296Z,44.15
2023-05-12T02:26:31.248Z,46.73
2023-05-12T02:27:31.236Z,54.46
2023-05-12T02:28:31.277Z,43.51
2023-05-12T02:29:31.275Z,48.66
2023-05-12T02:30:31.214Z,48.98
2023-05-12T02:31:31.196Z,47.05
2023-05-12T02:32:31.239Z,49.63
2023-05-12T02:33:31.226Z,46.89
2023-05-12T02:34:31.190Z,43.02
2023-05-12T02:35:31.174Z,46.41
2023-05-12T02:36:31.175Z,54.62
2023-05-12T02:37:31.132Z,57.36
2023-05-12T02:38:31.127Z,51.56
2023-05-12T02:39:31.150Z,46.25
2023-05-12T02:40:31.193Z,47.37
2023-05-12T02:41:31.098Z,45.44
2023-05-12T02:42:31.102Z,43.18
2023-05-12T02:43:31.109Z,46.08
2023-05-12T02:44:31.078Z,48.18
2023-05-12T02:45:31.110Z,45.76
2023-05-12T02:46:31.077Z,58.33
2023-05-12T02:47:31.111Z,58.97
2023-05-12T02:48:31.047Z,53.01
2023-05-12T02:49:31.023Z,49.47
2023-05-12T02:50:31.012Z,48.50
2023-05-12T02:51:31.049Z,56.07
2023-05-12T02:52:30.976Z,59.62
2023-05-12T02:53:31.034Z,47.70
2023-05-12T02:54:30.996Z,46.89
2023-05-12T02:55:31.057Z,52.53
2023-05-12T02:56:33.217Z,57.20
2023-05-12T02:57:30.984Z,45.92
2023-05-12T02:58:30.957Z,55.75
2023-05-12T02:59:30.934Z,55.75
2023-05-12T03:00:30.927Z,55.91
2023-05-12T03:01:30.947Z,57.04
2023-05-12T03:02:30.919Z,46.73
2023-05-12T03:03:31.053Z,48.02
2023-05-12T03:04:30.860Z,60.75
2023-05-12T03:05:30.904Z,50.11
2023-05-12T03:06:30.926Z,60.91
2023-05-12T03:07:30.832Z,59.30
2023-05-12T03:08:30.807Z,61.71
2023-05-12T03:09:30.826Z,51.40
2023-05-12T03:10:30.860Z,61.07
2023-05-12T03:11:30.811Z,61.07
2023-05-12T03:12:30.781Z,54.62
2023-05-12T03:13:30.865Z,61.55
2023-05-12T03:14:30.709Z,59.30
2023-05-12T03:15:30.774Z,54.62
2023-05-12T03:16:30.812Z,56.56
2023-05-12T03:17:30.810Z,52.69
2023-05-12T03:18:30.799Z,53.98
2023-05-12T03:19:30.708Z,59.62
2023-05-12T03:20:30.722Z,50.11
2023-05-12T03:21:30.959Z,53.17
2023-05-12T03:22:30.613Z,58.81
2023-05-12T03:23:30.687Z,59.30
2023-05-12T03:24:30.649Z,55.91
2023-05-12T03:25:30.653Z,68.00
2023-05-12T03:26:30.586Z,60.42
2023-05-12T03:27:30.579Z,58.01
2023-05-12T03:28:30.660Z,56.24
2023-05-12T03:29:30.647Z,62.52
2023-05-12T03:30:30.589Z,58.65
2023-05-12T03:31:30.652Z,65.10
2023-05-12T03:32:30.589Z,66.23
2023-05-12T03:33:30.613Z,56.72
2023-05-12T03:34:30.500Z,53.82
2023-05-12T03:35:30.696Z,68.16
2023-05-12T03:36:30.636Z,60.26
2023-05-12T03:37:30.475Z,61.71
2023-05-12T03:38:30.508Z,65.42
2023-05-12T03:39:30.467Z,60.75
2023-05-12T03:40:30.449Z,53.82
2023-05-12T03:41:30.455Z,53.50
2023-05-12T03:42:30.439Z,59.62
2023-05-12T03:43:30.458Z,65.74
2023-05-12T03:44:30.411Z,58.97
2023-05-12T03:45:30.388Z,54.62
2023-05-12T03:46:30.456Z,59.46
2023-05-12T03:47:30.469Z,68.48
2023-05-12T03:48:30.441Z,64.45
2023-05-12T03:49:30.531Z,59.30
2023-05-12T03:50:30.398Z,57.20
2023-05-12T03:51:30.333Z,57.36
2023-05-12T03:52:30.331Z,71.70
2023-05-12T03:53:30.322Z,59.94
2023-05-12T03:54:30.421Z,55.59
2023-05-12T03:55:30.316Z,55.11
2023-05-12T03:56:30.265Z,55.59
2023-05-12T03:57:30.270Z,59.94
2023-05-12T03:58:30.269Z,60.91
2023-05-12T03:59:30.249Z,57.85
2023-05-12T04:00:30.285Z,62.20
2023-05-12T04:01:30.226Z,60.42
2023-05-12T04:02:30.292Z,62.52
2023-05-12T04:03:30.299Z,61.07
2023-05-12T04:04:30.245Z,62.52
2023-05-12T04:05:30.196Z,59.62
2023-05-12T04:06:30.210Z,55.91
2023-05-12T04:07:30.201Z,61.07
2023-05-12T04:08:30.146Z,59.94
2023-05-12T04:09:30.167Z,61.39
2023-05-12T04:10:30.236Z,73.15
2023-05-12T04:11:30.129Z,68.64
2023-05-12T04:12:30.165Z,53.50
2023-05-12T04:13:30.086Z,61.55
2023-05-12T04:14:41.804Z,74.12
2023-05-12T04:15:30.118Z,57.85
2023-05-12T04:16:30.107Z,60.91
2023-05-12T04:17:30.087Z,70.42
2023-05-12T04:18:30.090Z,68.48
2023-05-12T04:19:30.111Z,63.97
2023-05-12T04:20:30.095Z,61.23
2023-05-12T04:21:30.045Z,60.26
2023-05-12T04:22:30.866Z,57.85
2023-05-12T04:23:30.046Z,64.13
2023-05-12T04:24:30.040Z,66.87
2023-05-12T04:25:30.036Z,60.91
2023-05-12T04:26:30.282Z,60.59
2023-05-12T04:27:29.995Z,64.45
2023-05-12T04:28:29.978Z,59.62
2023-05-12T04:29:30.110Z,67.35
2023-05-12T04:30:29.961Z,59.94
2023-05-12T04:31:30.004Z,62.04
2023-05-12T04:32:30.000Z,61.87
2023-05-12T04:33:29.918Z,63.81
2023-05-12T04:34:30.008Z,68.32
2023-05-12T04:35:29.927Z,65.42
2023-05-12T04:36:29.921Z,63.33
2023-05-12T04:37:29.899Z,54.79
2023-05-12T04:38:29.868Z,63.33
2023-05-12T04:39:29.865Z,62.36
2023-05-12T04:40:29.831Z,51.08
2023-05-12T04:41:29.844Z,60.10
2023-05-12T04:42:29.842Z,68.80
2023-05-12T04:44:29.800Z,64.78
2023-05-12T04:45:29.770Z,55.59
2023-05-12T04:46:29.854Z,62.52
2023-05-12T04:47:29.986Z,58.65
2023-05-12T04:48:29.763Z,65.10
2023-05-12T04:49:29.778Z,65.74
2023-05-12T04:50:29.737Z,59.62
2023-05-12T04:51:29.742Z,65.74
2023-05-12T04:52:29.715Z,63.97
2023-05-12T04:53:29.707Z,74.77
2023-05-12T04:54:29.754Z,62.68
2023-05-12T04:55:29.695Z,62.52
2023-05-12T04:56:29.689Z,59.78
2023-05-12T04:57:29.671Z,55.43
2023-05-12T04:58:29.684Z,59.94
2023-05-12T04:59:29.662Z,62.84
2023-05-12T05:00:29.694Z,62.36
2023-05-12T05:01:29.645Z,67.84
2023-05-12T05:02:29.760Z,59.46
2023-05-12T05:03:29.808Z,68.32
2023-05-12T05:04:29.588Z,67.03
2023-05-12T05:05:29.676Z,69.45
2023-05-12T05:06:29.599Z,60.42
2023-05-12T05:07:29.598Z,59.30
2023-05-12T05:08:29.627Z,67.51
2023-05-12T05:09:29.567Z,71.22
2023-05-12T05:10:29.563Z,52.05
2023-05-12T05:11:29.621Z,64.78
2023-05-12T05:12:29.569Z,66.71
2023-05-12T05:13:29.511Z,64.78
2023-05-12T05:14:29.494Z,61.87
2023-05-12T05:15:29.501Z,71.70
2023-05-12T05:16:29.543Z,65.26
2023-05-12T05:17:29.527Z,67.84
2023-05-12T05:18:29.536Z,63.16
2023-05-12T05:19:44.727Z,65.26
2023-05-12T05:20:29.604Z,61.71
2023-05-12T05:21:29.456Z,68.64
2023-05-12T05:22:29.572Z,60.59
2023-05-12T05:23:29.520Z,61.23
2023-05-12T05:24:29.414Z,64.94
2023-05-12T05:25:29.455Z,62.04
2023-05-12T05:26:29.384Z,62.68
2023-05-12T05:27:29.363Z,60.26
2023-05-12T05:28:29.414Z,58.17
2023-05-12T05:29:29.385Z,65.26
2023-05-12T05:30:29.323Z,65.10
2023-05-12T05:31:29.410Z,63.65
2023-05-12T05:32:29.453Z,58.81
2023-05-12T05:33:29.336Z,60.26
2023-05-12T05:34:29.388Z,64.78
2023-05-12T05:35:29.297Z,63.81
2023-05-12T05:36:31.410Z,65.10
2023-05-12T05:37:29.288Z,63.65
2023-05-12T05:38:29.308Z,68.80
2023-05-12T05:39:29.330Z,67.51
2023-05-12T05:40:33.821Z,64.94
2023-05-12T05:41:29.241Z,63.81
2023-05-12T05:42:29.226Z,60.10
2023-05-12T05:43:29.396Z,64.13
2023-05-12T05:44:29.396Z,64.78
2023-05-12T05:45:29.184Z,66.06
2023-05-12T05:46:29.313Z,73.80
2023-05-12T05:47:29.215Z,63.97
2023-05-12T05:48:29.226Z,64.61
2023-05-12T05:49:29.199Z,62.84
2023-05-12T05:50:29.161Z,64.61
2023-05-12T05:51:29.149Z,66.06
2023-05-12T05:52:29.249Z,61.39
2023-05-12T05:53:29.956Z,68.16
2023-05-12T05:54:29.247Z,72.51
2023-05-12T05:55:29.102Z,65.42
2023-05-12T05:56:29.285Z,65.74
2023-05-12T05:57:29.161Z,67.84
2023-05-12T05:58:29.160Z,59.14
2023-05-12T05:59:29.152Z,66.39
2023-05-12T06:00:29.118Z,66.55
2023-05-12T06:01:29.077Z,61.55
2023-05-12T06:02:29.161Z,65.10
2023-05-12T06:03:29.364Z,65.58
2023-05-12T06:04:29.165Z,65.74
2023-05-12T06:05:29.152Z,74.60
2023-05-12T06:06:29.142Z,66.71
2023-05-12T06:07:29.008Z,67.19
2023-05-12T06:08:28.949Z,66.39
2023-05-12T06:09:28.955Z,71.06
2023-05-12T06:10:28.980Z,72.67
2023-05-12T06:11:28.970Z,60.10
2023-05-12T06:12:28.918Z,66.55
2023-05-12T06:13:29.060Z,67.51
2023-05-12T06:14:29.066Z,66.55
2023-05-12T06:15:28.891Z,64.94
2023-05-12T06:16:28.956Z,61.07
2023-05-12T06:17:30.742Z,57.36
2023-05-12T06:18:28.869Z,59.78
2023-05-12T06:19:28.909Z,60.59
2023-05-12T06:20:28.873Z,60.91
2023-05-12T06:21:28.958Z,67.84
2023-05-12T06:22:28.817Z,63.33
2023-05-12T06:23:28.814Z,64.61
2023-05-12T06:24:28.827Z,60.42
2023-05-12T06:25:28.869Z,61.71
2023-05-12T06:26:28.787Z,64.45
2023-05-12T06:27:28.786Z,65.90
2023-05-12T06:28:28.789Z,65.74
2023-05-12T06:29:28.773Z,65.58
2023-05-12T06:30:28.799Z,63.97
2023-05-12T06:31:28.788Z,65.90
2023-05-12T06:32:28.814Z,60.91
2023-05-12T06:33:28.707Z,62.36
2023-05-12T06:34:28.713Z,65.74
2023-05-12T06:35:28.699Z,60.59
2023-05-12T06:36:28.790Z,63.65
2023-05-12T06:37:28.751Z,69.77
2023-05-12T06:38:28.822Z,65.42
2023-05-12T06:39:28.658Z,66.23
2023-05-12T06:40:28.699Z,59.94
2023-05-12T06:41:28.667Z,64.29
2023-05-12T06:42:28.749Z,61.55
2023-05-12T06:43:28.618Z,67.84
2023-05-12T06:44:28.619Z,70.74
2023-05-12T06:45:28.668Z,59.62
2023-05-12T06:46:28.625Z,61.71
2023-05-12T06:47:28.686Z,76.38
2023-05-12T06:48:28.608Z,63.33
2023-05-12T06:49:28.702Z,68.48
2023-05-12T06:50:28.559Z,60.59
2023-05-12T06:51:28.636Z,68.96
2023-05-12T06:52:29.437Z,68.64
2023-05-12T06:53:28.548Z,60.91
2023-05-12T06:54:28.526Z,67.68
2023-05-12T06:55:31.024Z,60.59
2023-05-12T06:56:28.569Z,62.20
2023-05-12T06:57:28.477Z,68.00
2023-05-12T06:58:29.092Z,63.00
2023-05-12T06:59:28.708Z,65.10
2023-05-12T07:00:28.578Z,68.16
2023-05-12T07:01:28.654Z,61.55
2023-05-12T07:02:28.976Z,56.88
2023-05-12T07:03:28.547Z,56.88
2023-05-12T07:04:29.063Z,65.58
2023-05-12T07:05:28.626Z,70.25
2023-05-12T07:06:28.619Z,60.42
2023-05-12T07:07:28.606Z,63.49
2023-05-12T07:08:29.077Z,60.26
2023-05-12T07:09:28.644Z,63.49
2023-05-12T07:10:28.868Z,62.52
2023-05-12T07:11:28.520Z,60.59
2023-05-12T07:12:29.199Z,63.65
2023-05-12T07:13:28.493Z,70.09
2023-05-12T07:14:28.561Z,66.23
2023-05-12T07:15:30.085Z,68.32
2023-05-12T07:16:28.376Z,62.52
2023-05-12T07:17:28.332Z,60.91
2023-05-12T07:18:28.535Z,67.68
2023-05-12T07:19:28.550Z,65.90
2023-05-12T07:20:28.553Z,63.33
2023-05-12T07:21:29.108Z,69.61
2023-05-12T07:22:28.252Z,59.46
2023-05-12T07:23:28.314Z,64.29
2023-05-12T07:24:29.086Z,63.33
2023-05-12T07:25:28.376Z,63.49
2023-05-12T07:26:29.262Z,60.10
2023-05-12T07:27:28.253Z,58.81
2023-05-12T07:28:28.287Z,59.94
2023-05-12T07:29:28.606Z,63.97
2023-05-12T07:30:28.300Z,69.93
2023-05-12T07:31:28.333Z,62.20
2023-05-12T07:32:28.232Z,70.90
2023-05-12T07:33:28.321Z,62.20
2023-05-12T07:34:29.146Z,63.65
2023-05-12T07:35:28.235Z,70.74
2023-05-12T07:36:29.109Z,64.61
2023-05-12T07:37:28.361Z,56.40
2023-05-12T07:38:29.254Z,58.49
2023-05-12T07:39:29.385Z,65.58
2023-05-12T07:40:28.149Z,67.68
2023-05-12T07:41:29.287Z,65.74
2023-05-12T07:42:29.196Z,72.83
2023-05-12T07:43:28.268Z,61.87
2023-05-12T07:44:28.175Z,62.84
2023-05-12T07:45:28.939Z,62.52
2023-05-12T07:46:28.297Z,58.65
2023-05-12T07:47:28.255Z,58.97
2023-05-12T07:48:29.227Z,59.78
2023-05-12T07:49:28.109Z,63.00
2023-05-12T07:50:28.091Z,57.04
2023-05-12T07:51:28.014Z,64.45
2023-05-12T07:52:28.313Z,71.06
2023-05-12T07:53:28.226Z,68.32
2023-05-12T07:54:28.443Z,62.04
2023-05-12T07:55:28.076Z,58.65
2023-05-12T07:56:28.032Z,58.17
2023-05-12T07:57:27.930Z,63.81
2023-05-12T07:58:27.999Z,67.03
2023-05-12T07:59:27.982Z,63.33
2023-05-12T08:00:27.872Z,72.03
2023-05-12T08:01:27.858Z,61.07
2023-05-12T08:02:29.493Z,70.90
2023-05-12T08:03:28.087Z,63.00
2023-05-12T08:04:28.867Z,55.11
2023-05-12T08:05:27.820Z,62.68
2023-05-12T08:06:28.052Z,67.84
2023-05-12T08:07:28.096Z,64.94
2023-05-12T08:08:28.129Z,59.30
2023-05-12T08:09:27.811Z,63.49
2023-05-12T08:10:27.909Z,64.13
2023-05-12T08:11:27.820Z,61.87
2023-05-12T08:12:27.731Z,62.52
2023-05-12T08:13:27.860Z,61.07
2023-05-12T08:14:27.751Z,71.38
2023-05-12T08:15:27.715Z,58.49
2023-05-12T08:16:28.657Z,64.61
2023-05-12T08:17:29.305Z,61.07
2023-05-12T08:18:27.813Z,61.55
2023-05-12T08:19:28.080Z,68.32
2023-05-12T08:20:28.200Z,66.06
2023-05-12T08:21:27.793Z,64.29
2023-05-12T08:22:27.789Z,67.84
2023-05-12T08:23:27.868Z,70.90
2023-05-12T08:24:27.727Z,66.23
2023-05-12T08:25:29.453Z,65.90
2023-05-12T08:26:27.722Z,59.46
2023-05-12T08:27:27.586Z,65.26
2023-05-12T08:28:27.693Z,56.56
2023-05-12T08:29:27.734Z,62.68
2023-05-12T08:30:27.630Z,58.49
2023-05-12T08:31:27.714Z,62.84
2023-05-12T08:32:27.669Z,65.58
2023-05-12T08:33:27.904Z,60.75
2023-05-12T08:34:27.618Z,64.29
2023-05-12T08:35:30.024Z,63.00
2023-05-12T08:36:27.877Z,68.80
2023-05-12T08:37:27.684Z,61.07
2023-05-12T08:38:27.509Z,66.23
2023-05-12T08:39:27.672Z,59.94
2023-05-12T08:40:27.511Z,58.17
2023-05-12T08:41:27.755Z,61.39
2023-05-12T08:42:27.455Z,64.61
2023-05-12T08:43:27.455Z,60.59
2023-05-12T08:44:27.444Z,63.97
2023-05-12T08:45:27.537Z,63.00
2023-05-12T08:46:27.646Z,70.42
2023-05-12T08:47:27.424Z,64.13
2023-05-12T08:48:27.667Z,64.94
2023-05-12T08:49:27.386Z,66.55
2023-05-12T08:50:27.412Z,53.82
2023-05-12T08:51:27.698Z,63.97
2023-05-12T08:52:27.366Z,62.68
2023-05-12T08:53:27.353Z,67.19
2023-05-12T08:54:27.371Z,60.59
2023-05-12T08:55:31.819Z,67.19
2023-05-12T08:57:29.472Z,59.94
2023-05-12T08:58:39.976Z,60.91
2023-05-12T08:59:27.454Z,64.94
2023-05-12T09:00:27.323Z,61.07
2023-05-12T09:01:27.701Z,60.42
2023-05-12T09:02:32.748Z,61.39
2023-05-12T09:03:28.547Z,65.90
2023-05-12T09:04:27.285Z,59.94
2023-05-12T09:05:27.349Z,60.91
2023-05-12T09:06:27.274Z,64.45
2023-05-12T09:07:27.270Z,63.65
2023-05-12T09:08:27.199Z,66.87
2023-05-12T09:09:27.296Z,60.75
2023-05-12T09:10:35.217Z,61.39
2023-05-12T09:11:27.301Z,69.61
2023-05-12T09:12:27.334Z,66.87
2023-05-12T09:13:27.306Z,60.59
2023-05-12T09:14:27.219Z,65.58
2023-05-12T09:15:27.145Z,63.49
2023-05-12T09:16:27.236Z,68.00
2023-05-12T09:17:27.186Z,58.17
2023-05-12T09:18:27.213Z,65.26
2023-05-12T09:19:27.170Z,65.10
2023-05-12T09:20:31.390Z,60.91
2023-05-12T09:21:27.224Z,64.61
2023-05-12T09:22:27.104Z,63.65
2023-05-12T09:23:27.403Z,62.04
2023-05-12T09:24:27.179Z,58.97
2023-05-12T09:25:27.136Z,60.10
2023-05-12T09:26:28.074Z,65.74
2023-05-12T09:27:26.994Z,68.48
2023-05-12T09:28:27.269Z,59.46
2023-05-12T09:29:31.712Z,59.30
2023-05-12T09:30:27.068Z,63.16
2023-05-12T09:31:27.184Z,65.58
2023-05-12T09:32:27.572Z,65.74
2023-05-12T09:33:27.045Z,66.87
2023-05-12T09:34:27.017Z,62.20
2023-05-12T09:35:27.488Z,61.39
2023-05-12T09:36:27.389Z,59.94
2023-05-12T09:37:27.170Z,60.75
2023-05-12T09:38:27.580Z,68.00
2023-05-12T09:39:27.689Z,60.75
2023-05-12T09:40:26.922Z,61.23
2023-05-12T09:41:26.916Z,58.97
2023-05-12T09:42:27.018Z,68.32
2023-05-12T09:43:26.884Z,64.29
2023-05-12T09:44:26.843Z,61.87
2023-05-12T09:45:26.926Z,68.80
2023-05-12T09:46:26.984Z,61.87
2023-05-12T09:47:26.961Z,63.16
2023-05-12T09:48:27.649Z,61.55
2023-05-12T09:49:27.165Z,61.39
2023-05-12T09:50:28.961Z,62.20
2023-05-12T09:51:26.816Z,60.26
2023-05-12T09:52:26.778Z,67.19
2023-05-12T09:53:26.888Z,61.87
2023-05-12T09:54:26.872Z,62.20
2023-05-12T09:55:27.045Z,61.39
2023-05-12T09:56:26.728Z,68.00
2023-05-12T09:57:26.905Z,62.20
2023-05-12T09:58:26.735Z,62.36
2023-05-12T09:59:26.969Z,58.81
2023-05-12T10:00:43.543Z,68.00
2023-05-12T10:01:26.957Z,68.80
2023-05-12T10:02:26.854Z,61.39
2023-05-12T10:03:26.798Z,63.97
2023-05-12T10:04:27.685Z,60.75
2023-05-12T10:05:26.627Z,64.29
2023-05-12T10:06:26.827Z,64.94
2023-05-12T10:07:26.661Z,59.94
2023-05-12T10:08:26.593Z,61.55
2023-05-12T10:09:26.818Z,64.78
2023-05-12T10:10:26.799Z,62.84
2023-05-12T10:11:26.715Z,68.48
2023-05-12T10:12:26.588Z,63.00
2023-05-12T10:13:26.891Z,59.94
2023-05-12T10:14:26.705Z,67.35
2023-05-12T10:15:26.590Z,65.26
2023-05-12T10:16:26.768Z,66.23
2023-05-12T10:17:26.581Z,63.33
2023-05-12T10:18:26.590Z,62.52
2023-05-12T10:19:26.668Z,64.61
2023-05-12T10:20:26.582Z,64.13
2023-05-12T10:21:26.466Z,61.87
2023-05-12T10:22:26.878Z,67.51
2023-05-12T10:23:27.171Z,70.58
2023-05-12T10:24:26.572Z,65.58
2023-05-12T10:25:26.428Z,65.26
2023-05-12T10:26:26.498Z,64.13
2023-05-12T10:27:26.675Z,62.68
2023-05-12T10:28:26.614Z,71.38
2023-05-12T10:29:26.602Z,63.33
2023-05-12T10:30:26.625Z,67.51
2023-05-12T10:31:26.342Z,65.74
2023-05-12T10:32:26.506Z,60.26
2023-05-12T10:33:26.612Z,58.49
2023-05-12T10:34:26.443Z,69.45
2023-05-12T10:35:26.395Z,67.84
2023-05-12T10:36:26.532Z,65.10
2023-05-12T10:37:26.448Z,68.64
2023-05-12T10:38:26.409Z,61.07
2023-05-12T10:39:26.378Z,63.16
2023-05-12T10:40:26.453Z,61.07
2023-05-12T10:41:26.641Z,62.20
2023-05-12T10:42:26.417Z,59.14
2023-05-12T10:43:26.368Z,61.71
2023-05-12T10:44:26.441Z,64.13
2023-05-12T10:45:26.737Z,61.71
2023-05-12T10:46:26.554Z,60.42
2023-05-12T10:47:26.519Z,67.68
2023-05-12T10:48:27.270Z,65.26
2023-05-12T10:49:31.662Z,61.71
2023-05-12T10:50:26.291Z,60.91
2023-05-12T10:51:27.556Z,62.68
2023-05-12T10:52:26.536Z,60.10
2023-05-12T10:53:38.071Z,67.03
2023-05-12T10:54:26.410Z,63.65
2023-05-12T10:55:26.411Z,64.78
2023-05-12T10:56:26.452Z,59.94
2023-05-12T10:57:26.482Z,68.16
2023-05-12T10:58:26.865Z,60.42
2023-05-12T10:59:26.848Z,63.81
2023-05-12T11:00:26.780Z,64.13
2023-05-12T11:01:26.644Z,68.48
2023-05-12T11:02:27.809Z,61.23
2023-05-12T11:03:27.324Z,64.61
2023-05-12T11:04:26.926Z,59.30
2023-05-12T11:05:27.285Z,64.94
2023-05-12T11:06:27.720Z,65.42
2023-05-12T11:07:26.584Z,67.19
2023-05-12T11:08:26.880Z,69.77
2023-05-12T11:09:27.092Z,65.10
2023-05-12T11:10:26.675Z,63.00
2023-05-12T11:11:27.797Z,70.74
2023-05-12T11:12:26.537Z,66.55
2023-05-12T11:13:26.493Z,63.00
2023-05-12T11:14:26.484Z,61.71
2023-05-12T11:15:26.430Z,69.61
2023-05-12T11:16:26.512Z,63.33
2023-05-12T11:17:26.109Z,60.10
2023-05-12T11:18:26.302Z,60.42
2023-05-12T11:19:26.128Z,61.87
2023-05-12T11:20:27.610Z,59.30
2023-05-12T11:21:26.188Z,66.23
2023-05-12T11:22:26.207Z,67.84
2023-05-12T11:23:26.428Z,63.49
2023-05-12T11:24:26.240Z,66.87
2023-05-12T11:25:26.746Z,65.26
2023-05-12T11:26:26.420Z,68.96
2023-05-12T11:27:31.904Z,61.55
2023-05-12T11:28:26.045Z,70.42
2023-05-12T11:29:27.148Z,59.62
2023-05-12T11:30:26.853Z,64.61
2023-05-12T11:31:26.383Z,66.23
2023-05-12T11:32:26.403Z,73.15
2023-05-12T11:33:26.174Z,68.80
2023-05-12T11:34:26.244Z,64.94
2023-05-12T11:35:26.657Z,63.16
2023-05-12T11:36:26.210Z,65.74
2023-05-12T11:37:26.461Z,60.91
2023-05-12T11:38:26.902Z,66.39
2023-05-12T11:39:25.856Z,60.10
2023-05-12T11:40:25.930Z,65.42
2023-05-12T11:41:26.858Z,60.59
2023-05-12T11:42:26.101Z,65.58
2023-05-12T11:43:25.759Z,60.42
2023-05-12T11:44:26.416Z,62.68
2023-05-12T11:45:26.926Z,66.55
2023-05-12T11:46:25.704Z,69.77
2023-05-12T11:47:26.349Z,64.13
2023-05-12T11:48:25.768Z,62.52
2023-05-12T11:49:27.797Z,55.43
2023-05-12T11:50:25.621Z,67.35
2023-05-12T11:51:25.897Z,59.62
2023-05-12T11:52:26.049Z,65.74
2023-05-12T11:53:27.654Z,62.52
2023-05-12T11:54:26.671Z,64.94
2023-05-12T11:55:26.162Z,64.29
2023-05-12T11:56:26.168Z,59.94
2023-05-12T11:57:25.961Z,61.87
2023-05-12T11:58:25.866Z,61.07
2023-05-12T11:59:25.786Z,61.87
2023-05-12T12:00:25.877Z,64.13
2023-05-12T12:01:26.279Z,65.26
2023-05-12T12:02:25.774Z,63.65
2023-05-12T12:03:25.682Z,64.45
2023-05-12T12:04:25.718Z,63.00
2023-05-12T12:05:25.613Z,62.84
2023-05-12T12:06:25.705Z,62.84
2023-05-12T12:07:25.506Z,69.77
2023-05-12T12:08:27.177Z,60.59
2023-05-12T12:09:26.741Z,61.23
2023-05-12T12:10:25.709Z,63.81
2023-05-12T12:11:25.623Z,65.74
2023-05-12T12:12:26.104Z,55.75
2023-05-12T12:13:25.457Z,64.78
2023-05-12T12:14:25.445Z,64.61
2023-05-12T12:15:25.586Z,64.94
2023-05-12T12:16:26.044Z,60.26
2023-05-12T12:17:25.739Z,65.26
2023-05-12T12:18:25.513Z,61.39
2023-05-12T12:19:25.391Z,70.09
2023-05-12T12:20:25.584Z,62.04
2023-05-12T12:21:25.561Z,69.29
2023-05-12T12:22:26.196Z,67.03
2023-05-12T12:23:25.520Z,61.23
2023-05-12T12:24:25.354Z,62.04
2023-05-12T12:25:25.641Z,60.59
2023-05-12T12:26:25.525Z,64.45
2023-05-12T12:27:25.450Z,60.59
2023-05-12T12:28:25.393Z,63.00
2023-05-12T12:29:25.275Z,63.65
2023-05-12T12:30:25.519Z,60.75
2023-05-12T12:31:26.077Z,57.85
2023-05-12T12:32:25.562Z,61.87
2023-05-12T12:33:25.893Z,73.80
2023-05-12T12:34:25.350Z,56.88
2023-05-12T12:35:25.305Z,72.19
2023-05-12T12:36:25.470Z,63.49
2023-05-12T12:37:28.585Z,64.45
2023-05-12T12:38:25.408Z,65.90
2023-05-12T12:39:26.284Z,61.07
2023-05-12T12:40:25.496Z,62.36
2023-05-12T12:41:25.385Z,75.41
2023-05-12T12:42:25.449Z,71.38
2023-05-12T12:43:25.277Z,64.13
2023-05-12T12:44:26.803Z,61.87
2023-05-12T12:45:26.881Z,61.71
2023-05-12T12:46:25.766Z,59.78
2023-05-12T12:47:27.446Z,63.81
2023-05-12T12:48:25.398Z,62.36
2023-05-12T12:49:26.385Z,60.59
2023-05-12T12:50:26.993Z,59.62
2023-05-12T12:51:28.543Z,63.65
2023-05-12T12:52:25.949Z,65.74
2023-05-12T12:53:25.727Z,63.00
2023-05-12T12:54:25.426Z,64.61